createdAt,value
2022-08-20T00:02:16.958Z,96212.25
2022-08-20T00:04:46.190Z,96212.97
2022-08-20T00:07:16.377Z,96208.63
2022-08-20T00:09:45.363Z,96209.22
2022-08-20T00:12:17.863Z,96204.47
2022-08-20T00:14:46.412Z,96200.34
2022-08-20T00:17:16.526Z,96209.78
2022-08-20T00:19:44.830Z,96204.78
2022-08-20T00:22:13.598Z,96204.09
2022-08-20T00:24:42.094Z,96204.81
2022-08-20T00:27:10.481Z,96205.78
2022-08-20T00:29:39.120Z,96211.91
2022-08-20T00:32:08.258Z,96209.56
2022-08-20T00:34:37.957Z,96211.59
2022-08-20T00:37:06.467Z,96224.47
2022-08-20T00:39:34.828Z,96208.53
2022-08-20T00:42:03.759Z,96222.13
2022-08-20T00:44:32.206Z,96220.72
2022-08-20T00:47:01.178Z,96228.41
2022-08-20T00:49:32.005Z,96228.78
2022-08-20T00:52:03.784Z,96229.88
2022-08-20T00:54:36.385Z,96224.63
2022-08-20T00:57:09.403Z,96220.25
2022-08-20T00:59:40.271Z,96221.75
2022-08-20T01:02:11.247Z,96214.81
2022-08-20T01:04:39.817Z,96210.78
2022-08-20T01:07:09.827Z,96233.31
2022-08-20T01:09:58.231Z,96229.34
2022-08-20T01:12:29.394Z,96308.16
2022-08-20T01:15:00.305Z,58918.88
2022-08-20T01:17:32.545Z,58918.88
2022-08-20T01:20:05.822Z,58918.88
2022-08-20T01:22:58.633Z,96390.91
2022-08-20T01:25:32.217Z,96206.06
2022-08-20T01:28:02.389Z,96209.47
2022-08-20T01:30:33.404Z,96219.59
2022-08-20T01:33:02.651Z,96216.38
2022-08-20T01:35:31.256Z,96213.16
2022-08-20T01:37:59.597Z,96211.34
2022-08-20T01:40:41.575Z,96219.72
2022-08-20T01:43:12.360Z,96212.59
2022-08-20T01:45:43.020Z,96213.25
2022-08-20T01:48:11.981Z,96215.38
2022-08-20T01:50:44.455Z,96216.47
2022-08-20T01:53:21.347Z,96214.88
2022-08-20T01:55:49.637Z,96201.59
2022-08-20T01:58:20.050Z,96212.28
2022-08-20T02:00:48.510Z,96210.44
2022-08-20T02:03:16.818Z,96205.06
2022-08-20T02:05:45.267Z,96208.34
2022-08-20T02:08:13.654Z,96212.63
2022-08-20T02:10:41.976Z,96217.66
2022-08-20T02:13:10.319Z,96216.94
2022-08-20T02:15:42.955Z,96216.94
2022-08-20T02:18:16.060Z,96213.31
2022-08-20T02:20:45.233Z,96225.03
2022-08-20T02:23:15.949Z,96227.34
2022-08-20T02:25:47.538Z,96216.34
2022-08-20T02:28:18.438Z,96222.88
2022-08-20T02:30:51.890Z,96220.94
2022-08-20T02:33:24.082Z,96214.22
2022-08-20T02:35:56.814Z,96207.59
2022-08-20T02:38:25.925Z,96205.91
2022-08-20T02:40:54.332Z,96226.53
2022-08-20T02:43:23.038Z,96219.25
2022-08-20T02:45:53.738Z,96218.22
2022-08-20T02:48:23.335Z,96221.09
2022-08-20T02:50:54.719Z,96221.00
2022-08-20T02:53:24.251Z,96225.91
2022-08-20T02:55:52.726Z,96222.97
2022-08-20T02:58:22.469Z,96223.72
2022-08-20T03:00:52.272Z,96227.25
2022-08-20T03:03:22.818Z,96224.22
2022-08-20T03:05:54.062Z,96231.69
2022-08-20T03:08:23.201Z,96220.34
2022-08-20T03:10:52.801Z,96221.03
2022-08-20T03:13:21.966Z,96212.91
2022-08-20T03:15:58.759Z,96220.59
2022-08-20T03:18:30.823Z,96217.69
2022-08-20T03:20:59.668Z,96220.38
2022-08-20T03:23:28.014Z,96222.50
2022-08-20T03:25:56.976Z,96215.94
2022-08-20T03:28:25.716Z,96223.16
2022-08-20T03:30:56.482Z,96220.28
2022-08-20T03:33:24.885Z,96218.06
2022-08-20T03:35:53.353Z,96213.31
2022-08-20T03:38:32.345Z,96223.38
2022-08-20T03:41:02.933Z,96225.50
2022-08-20T03:43:31.698Z,96221.69
2022-08-20T03:46:01.466Z,96226.03
2022-08-20T03:48:30.224Z,96235.03
2022-08-20T03:51:00.901Z,96236.41
2022-08-20T03:53:31.762Z,96239.00
2022-08-20T03:56:03.646Z,96243.94
2022-08-20T03:58:35.854Z,96234.84
2022-08-20T04:01:09.053Z,96246.03
2022-08-20T04:03:58.637Z,96248.75
2022-08-20T04:06:27.759Z,96253.25
2022-08-20T04:08:56.154Z,96253.28
2022-08-20T04:11:24.902Z,96251.97
2022-08-20T04:13:53.232Z,96255.03
2022-08-20T04:16:24.119Z,96250.75
2022-08-20T04:18:57.236Z,96247.13
2022-08-20T04:21:32.782Z,96251.72
2022-08-20T04:24:02.246Z,96253.09
2022-08-20T04:26:31.069Z,96254.41
2022-08-20T04:28:59.652Z,96259.25
2022-08-20T04:31:33.604Z,96252.63
2022-08-20T04:34:02.860Z,96254.06
2022-08-20T04:36:31.261Z,96244.91
2022-08-20T04:38:59.622Z,96258.31
2022-08-20T04:41:28.019Z,96254.41
2022-08-20T04:43:58.255Z,96267.97
2022-08-20T04:46:29.368Z,96265.97
2022-08-20T04:48:58.388Z,96262.19
2022-08-20T04:51:27.072Z,96264.84
2022-08-20T04:53:57.471Z,96265.91
2022-08-20T04:56:27.759Z,96263.69
2022-08-20T04:58:58.697Z,96266.84
2022-08-20T05:01:29.464Z,96281.16
2022-08-20T05:03:58.771Z,96268.84
2022-08-20T05:06:29.596Z,96273.28
2022-08-20T05:08:59.701Z,96283.16
2022-08-20T05:11:33.468Z,96282.47
2022-08-20T05:14:06.857Z,96283.47
2022-08-20T05:16:39.214Z,96288.03
2022-08-20T05:19:09.597Z,96291.25
2022-08-20T05:21:38.242Z,96294.38
2022-08-20T05:24:07.365Z,96302.81
2022-08-20T05:26:36.062Z,96297.06
2022-08-20T05:29:06.502Z,96307.84
2022-08-20T05:31:35.590Z,96312.34
2022-08-20T05:34:09.775Z,96309.41
2022-08-20T05:36:40.013Z,96318.72
2022-08-20T05:39:08.842Z,96309.72
2022-08-20T05:41:37.923Z,96310.19
2022-08-20T05:44:09.933Z,96307.66
2022-08-20T05:46:41.024Z,96305.69
2022-08-20T05:49:11.884Z,96316.19
2022-08-20T05:51:40.430Z,96313.38
2022-08-20T05:54:09.775Z,96324.03
2022-08-20T05:56:38.225Z,96323.94
2022-08-20T05:59:07.955Z,96315.75
2022-08-20T06:01:38.745Z,96323.00
2022-08-20T06:04:26.684Z,96329.53
2022-08-20T06:07:03.404Z,96317.09
2022-08-20T06:09:32.763Z,96314.75
2022-08-20T06:12:03.025Z,96314.03
2022-08-20T06:14:31.964Z,96328.97
2022-08-20T06:17:05.674Z,96325.22
2022-08-20T06:19:34.946Z,96318.16
2022-08-20T06:22:17.858Z,96329.78
2022-08-20T06:24:50.161Z,96333.19
2022-08-20T06:27:18.931Z,96340.13
2022-08-20T06:29:47.394Z,96333.69
2022-08-20T06:32:15.936Z,96335.63
2022-08-20T06:34:49.824Z,96340.22
2022-08-20T06:37:23.272Z,96341.38
2022-08-20T06:40:02.715Z,96352.16
2022-08-20T06:42:31.238Z,96341.13
2022-08-20T06:45:00.514Z,96351.66
2022-08-20T06:47:29.558Z,96345.13
2022-08-20T06:49:58.122Z,96344.66
2022-08-20T06:52:51.521Z,96343.34
2022-08-20T06:55:17.508Z,96350.16
2022-08-20T06:57:47.462Z,96353.56
2022-08-20T07:00:17.767Z,96354.00
2022-08-20T07:02:46.374Z,96358.91
2022-08-20T07:05:16.131Z,96344.66
2022-08-20T07:07:49.459Z,96354.38
2022-08-20T07:10:19.143Z,96354.38
2022-08-20T07:12:50.535Z,96348.09
2022-08-20T07:15:20.533Z,96354.59
2022-08-20T07:17:54.044Z,96359.31
2022-08-20T07:20:25.292Z,96361.88
2022-08-20T07:22:55.092Z,96362.25
2022-08-20T07:25:24.526Z,96362.69
2022-08-20T07:27:52.930Z,96364.47
2022-08-20T07:30:57.142Z,96369.63
2022-08-20T07:33:28.414Z,96367.88
2022-08-20T07:35:57.285Z,96372.09
2022-08-20T07:38:28.418Z,96365.78
2022-08-20T07:40:58.990Z,96369.72
2022-08-20T07:43:28.322Z,96362.50
2022-08-20T07:46:00.698Z,96357.31
2022-08-20T07:48:31.642Z,96361.41
2022-08-20T07:51:02.940Z,96360.28
2022-08-20T07:53:35.708Z,96364.50
2022-08-20T07:56:06.450Z,96376.84
2022-08-20T07:58:35.318Z,96375.56
2022-08-20T08:01:03.777Z,96378.97
2022-08-20T08:03:39.711Z,96380.25
2022-08-20T08:06:28.446Z,96383.16
2022-08-20T08:09:01.690Z,96394.72
2022-08-20T08:11:30.543Z,96389.69
2022-08-20T08:14:00.475Z,96394.34
2022-08-20T08:16:31.035Z,96388.59
2022-08-20T08:19:01.905Z,96394.81
2022-08-20T08:21:31.473Z,96399.03
2022-08-20T08:24:02.582Z,96396.09
2022-08-20T08:26:31.028Z,96399.31
2022-08-20T08:28:59.411Z,96406.00
2022-08-20T08:31:27.870Z,96406.22
2022-08-20T08:33:56.426Z,96416.28
2022-08-20T08:36:27.321Z,96409.59
2022-08-20T08:38:56.698Z,96411.38
2022-08-20T08:41:31.858Z,96421.44
2022-08-20T08:44:07.429Z,96420.16
2022-08-20T08:46:40.564Z,96415.22
2022-08-20T08:49:11.815Z,96420.00
2022-08-20T08:51:45.010Z,96424.88
2022-08-20T08:54:16.585Z,96427.31
2022-08-20T08:56:49.789Z,96427.91
2022-08-20T08:59:20.477Z,96422.22
2022-08-20T09:01:55.233Z,96425.84
2022-08-20T09:04:30.430Z,96427.38
2022-08-20T09:06:59.059Z,96437.66
2022-08-20T09:09:31.479Z,96432.38
2022-08-20T09:12:05.498Z,96424.75
2022-08-20T09:14:34.172Z,96425.03
2022-08-20T09:17:02.988Z,96422.63
2022-08-20T09:19:31.960Z,96425.47
2022-08-20T09:22:00.306Z,96415.69
2022-08-20T09:24:28.714Z,96432.03
2022-08-20T09:26:57.161Z,96421.03
2022-08-20T09:29:26.990Z,96431.41
2022-08-20T09:32:05.448Z,96435.75
2022-08-20T09:34:37.263Z,96436.16
2022-08-20T09:37:05.765Z,96429.53
2022-08-20T09:39:34.106Z,96438.69
2022-08-20T09:42:09.885Z,96444.00
2022-08-20T09:44:39.952Z,96434.78
2022-08-20T09:47:08.504Z,96433.78
2022-08-20T09:49:37.377Z,96433.66
2022-08-20T09:52:08.262Z,96437.84
2022-08-20T09:54:37.752Z,96429.78
2022-08-20T09:57:07.980Z,96433.94
2022-08-20T09:59:37.262Z,96437.31
2022-08-20T10:02:07.023Z,96424.28
2022-08-20T10:04:35.429Z,96426.44
2022-08-20T10:07:08.242Z,96430.53
2022-08-20T10:09:36.740Z,96432.47
2022-08-20T10:12:05.501Z,96436.19
2022-08-20T10:14:33.952Z,96434.16
2022-08-20T10:17:03.098Z,96435.72
2022-08-20T10:19:33.194Z,96438.75
2022-08-20T10:22:01.868Z,96443.81
2022-08-20T10:24:31.116Z,96441.94
2022-08-20T10:27:00.436Z,96437.00
2022-08-20T10:29:29.506Z,96439.34
2022-08-20T10:31:58.085Z,96437.97
2022-08-20T10:34:27.013Z,96433.03
2022-08-20T10:36:56.797Z,96430.22
2022-08-20T10:39:25.174Z,96438.00
2022-08-20T10:41:53.611Z,96435.78
2022-08-20T10:44:21.988Z,96435.53
2022-08-20T10:46:50.371Z,96437.56
2022-08-20T10:49:25.602Z,96430.34
2022-08-20T10:51:53.946Z,96429.81
2022-08-20T10:54:23.671Z,96431.63
2022-08-20T10:56:52.098Z,96436.47
2022-08-20T10:59:20.500Z,96419.94
2022-08-20T11:01:48.879Z,96421.31
2022-08-20T11:04:17.261Z,96414.19
2022-08-20T11:06:45.686Z,96416.75
2022-08-20T11:09:14.041Z,96407.19
2022-08-20T11:11:43.748Z,96417.38
2022-08-20T11:14:12.149Z,96430.66
2022-08-20T11:16:40.533Z,96421.78
2022-08-20T11:19:08.972Z,96420.09
2022-08-20T11:21:37.333Z,96413.28
2022-08-20T11:24:06.006Z,96406.78
2022-08-20T11:26:34.349Z,96407.34
2022-08-20T11:29:04.006Z,96403.66
2022-08-20T11:31:32.352Z,96402.75
2022-08-20T11:34:00.691Z,96403.41
2022-08-20T11:36:29.173Z,96400.09
2022-08-20T11:38:57.467Z,96398.19
2022-08-20T11:41:25.792Z,96397.78
2022-08-20T11:44:17.373Z,96394.31
2022-08-20T11:46:43.759Z,96382.31
2022-08-20T11:49:12.190Z,96383.56
2022-08-20T11:51:48.983Z,96390.81
2022-08-20T11:54:18.374Z,96397.03
2022-08-20T11:56:46.826Z,96394.25
2022-08-20T11:59:15.412Z,96397.34
2022-08-20T12:02:01.993Z,96409.19
2022-08-20T12:04:33.500Z,96396.56
2022-08-20T12:07:09.511Z,96402.22
2022-08-20T12:09:40.044Z,96399.78
2022-08-20T12:12:15.116Z,96408.00
2022-08-20T12:14:43.487Z,96408.53
2022-08-20T12:17:14.759Z,96411.78
2022-08-20T12:19:43.718Z,96413.16
2022-08-20T12:22:24.985Z,96413.19
2022-08-20T12:24:53.995Z,96414.09
2022-08-20T12:27:23.950Z,96413.94
2022-08-20T12:29:54.753Z,96413.75
2022-08-20T12:32:26.069Z,96409.16
2022-08-20T12:34:54.406Z,96406.66
2022-08-20T12:37:24.395Z,96411.06
2022-08-20T12:39:56.211Z,96398.53
2022-08-20T12:42:24.658Z,96399.19
2022-08-20T12:44:52.988Z,96396.47
2022-08-20T12:47:23.539Z,96392.59
2022-08-20T12:49:55.255Z,96398.28
2022-08-20T12:52:26.239Z,96388.06
2022-08-20T12:54:55.141Z,96394.25
2022-08-20T12:57:28.395Z,96391.09
2022-08-20T12:59:57.170Z,96382.16
2022-08-20T13:02:27.765Z,96385.16
2022-08-20T13:05:00.099Z,96380.91
2022-08-20T13:07:31.871Z,96389.38
2022-08-20T13:10:00.867Z,96382.66
2022-08-20T13:12:29.505Z,96396.75
2022-08-20T13:14:58.036Z,96387.78
2022-08-20T13:17:33.679Z,96392.75
2022-08-20T13:20:11.720Z,96387.13
2022-08-20T13:22:40.266Z,96394.69
2022-08-20T13:25:09.719Z,96381.97
2022-08-20T13:27:38.757Z,96384.84
2022-08-20T13:30:09.206Z,96378.47
2022-08-20T13:32:37.590Z,96378.91
2022-08-20T13:35:06.844Z,96376.53
2022-08-20T13:37:36.638Z,96377.84
2022-08-20T13:40:07.317Z,96373.13
2022-08-20T13:42:36.318Z,96371.56
2022-08-20T13:45:05.963Z,96361.63
2022-08-20T13:47:36.824Z,96358.38
2022-08-20T13:50:08.246Z,96356.19
2022-08-20T13:52:39.261Z,96348.19
2022-08-20T13:55:12.574Z,96353.38
2022-08-20T13:57:41.949Z,96353.00
2022-08-20T14:00:15.371Z,96345.94
2022-08-20T14:02:44.293Z,96345.91
2022-08-20T14:05:14.227Z,96350.34
2022-08-20T14:07:48.718Z,96348.19
2022-08-20T14:10:19.021Z,96356.56
2022-08-20T14:12:48.348Z,96355.75
2022-08-20T14:15:17.446Z,96349.09
2022-08-20T14:17:51.566Z,96344.19
2022-08-20T14:20:22.017Z,96349.91
2022-08-20T14:22:51.711Z,96348.84
2022-08-20T14:25:21.538Z,96349.50
2022-08-20T14:27:50.649Z,96350.03
2022-08-20T14:30:22.630Z,96358.63
2022-08-20T14:32:51.942Z,96361.81
2022-08-20T14:35:20.751Z,96364.16
2022-08-20T14:37:53.112Z,96378.00
2022-08-20T14:40:23.503Z,96380.28
2022-08-20T14:42:52.102Z,96381.34
2022-08-20T14:45:21.186Z,96377.47
2022-08-20T14:47:53.753Z,96370.25
2022-08-20T14:50:25.148Z,96369.31
2022-08-20T14:52:55.509Z,96382.81
2022-08-20T14:55:25.836Z,96388.22
2022-08-20T14:57:54.436Z,96404.53
2022-08-20T15:00:25.694Z,96423.44
2022-08-20T15:02:54.018Z,96439.03
2022-08-20T15:05:22.414Z,96440.66
2022-08-20T15:07:54.417Z,96451.50
2022-08-20T15:10:24.799Z,96449.66
2022-08-20T15:12:52.979Z,96458.31
2022-08-20T15:15:21.401Z,96450.09
2022-08-20T15:17:51.830Z,96456.25
2022-08-20T15:20:21.164Z,96445.84
2022-08-20T15:22:50.872Z,96450.72
2022-08-20T15:25:24.089Z,96443.50
2022-08-20T15:27:52.744Z,96444.25
2022-08-20T15:30:23.472Z,96438.63
2022-08-20T15:32:55.053Z,96431.84
2022-08-20T15:35:24.100Z,96433.75
2022-08-20T15:37:54.713Z,96431.75
2022-08-20T15:40:28.400Z,96414.34
2022-08-20T15:42:57.330Z,96421.69
2022-08-20T15:45:25.884Z,96433.34
2022-08-20T15:47:57.207Z,96428.69
2022-08-20T15:50:37.911Z,96435.97
2022-08-20T15:53:06.872Z,96432.06
2022-08-20T15:55:37.460Z,96431.03
2022-08-20T15:58:11.668Z,96431.66
2022-08-20T16:00:42.889Z,96424.22
2022-08-20T16:03:47.592Z,96422.81
2022-08-20T16:06:19.237Z,96414.78
2022-08-20T16:08:58.054Z,96407.50
2022-08-20T16:11:33.858Z,96398.09
2022-08-20T16:14:12.298Z,96397.19
2022-08-20T16:16:44.896Z,96401.44
2022-08-20T16:19:18.612Z,96403.00
2022-08-20T16:21:48.949Z,96405.44
2022-08-20T16:24:19.817Z,96404.25
2022-08-20T16:26:59.497Z,96417.56
2022-08-20T16:29:35.073Z,96422.09
2022-08-20T16:32:07.043Z,96422.75
2022-08-20T16:34:38.776Z,96426.25
2022-08-20T16:37:25.295Z,96427.13
2022-08-20T16:40:19.800Z,96424.53
2022-08-20T16:42:52.297Z,96424.69
2022-08-20T16:45:23.112Z,96432.63
2022-08-20T16:47:52.389Z,96429.19
2022-08-20T16:50:24.063Z,96440.41
2022-08-20T16:52:52.653Z,96447.59
2022-08-20T16:55:21.918Z,96454.41
2022-08-20T16:57:53.117Z,96456.03
2022-08-20T17:00:25.096Z,96468.09
2022-08-20T17:02:55.170Z,96466.13
2022-08-20T17:05:25.748Z,96468.47
2022-08-20T17:07:57.300Z,96474.84
2022-08-20T17:10:29.344Z,96475.63
2022-08-20T17:13:00.199Z,96476.66
2022-08-20T17:15:29.949Z,96472.19
2022-08-20T17:17:58.308Z,96476.75
2022-08-20T17:20:28.112Z,96472.31
2022-08-20T17:23:10.224Z,96473.06
2022-08-20T17:25:39.001Z,96467.41
2022-08-20T17:28:16.785Z,96477.50
2022-08-20T17:30:46.259Z,96469.78
2022-08-20T17:33:25.335Z,96471.28
2022-08-20T17:35:56.296Z,96474.13
2022-08-20T17:38:29.203Z,96468.66
2022-08-20T17:41:00.403Z,96464.34
2022-08-20T17:43:31.696Z,96473.19
2022-08-20T17:46:02.908Z,96466.47
2022-08-20T17:48:35.383Z,96465.22
2022-08-20T17:51:09.694Z,96463.28
2022-08-20T17:53:40.522Z,96469.31
2022-08-20T17:56:15.347Z,96477.09
2022-08-20T17:58:54.357Z,96465.16
2022-08-20T18:01:25.810Z,96476.81
2022-08-20T18:03:54.644Z,96474.69
2022-08-20T18:06:30.816Z,96472.09
2022-08-20T18:09:04.391Z,96473.06
2022-08-20T18:11:36.497Z,96470.25
2022-08-20T18:14:26.020Z,96474.06
2022-08-20T18:17:10.199Z,96465.34
2022-08-20T18:19:58.304Z,96471.22
2022-08-20T18:22:27.827Z,96477.97
2022-08-20T18:25:01.977Z,96476.06
2022-08-20T18:27:34.874Z,96472.31
2022-08-20T18:30:05.355Z,96470.09
2022-08-20T18:32:34.566Z,96468.09
2022-08-20T18:35:14.872Z,96464.94
2022-08-20T18:37:43.278Z,96470.34
2022-08-20T18:40:19.028Z,96470.88
2022-08-20T18:42:48.245Z,96471.69
2022-08-20T18:45:29.159Z,96480.91
2022-08-20T18:47:57.740Z,96480.53
2022-08-20T18:50:31.934Z,96490.34
2022-08-20T18:53:12.085Z,96490.81
2022-08-20T18:55:42.740Z,96493.59
2022-08-20T18:58:13.689Z,96493.59
2022-08-20T19:00:45.398Z,96496.00
2022-08-20T19:03:18.430Z,96489.56
2022-08-20T19:06:04.054Z,96495.34
2022-08-20T19:08:42.915Z,96485.59
2022-08-20T19:11:32.286Z,96486.59
2022-08-20T19:14:23.209Z,96486.47
2022-08-20T19:16:58.093Z,96488.22
2022-08-20T19:19:30.786Z,96493.31
2022-08-20T19:22:02.195Z,96498.19
2022-08-20T19:24:33.124Z,96497.31
2022-08-20T19:27:04.474Z,96494.28
2022-08-20T19:29:36.511Z,96489.94
2022-08-20T19:32:08.668Z,96489.81
2022-08-20T19:34:37.543Z,96485.78
2022-08-20T19:37:31.592Z,96486.97
2022-08-20T19:40:07.317Z,96490.56
2022-08-20T19:42:42.380Z,96488.03
2022-08-20T19:45:18.580Z,96481.44
2022-08-20T19:47:55.138Z,96481.38
2022-08-20T19:50:29.967Z,96480.09
2022-08-20T19:53:03.263Z,96478.53
2022-08-20T19:55:34.100Z,96477.50
2022-08-20T19:58:05.755Z,96470.22
2022-08-20T20:00:42.251Z,96471.94
2022-08-20T20:03:12.417Z,96474.34
2022-08-20T20:05:48.268Z,96467.22
2022-08-20T20:08:16.640Z,96460.59
2022-08-20T20:10:46.774Z,96466.03
2022-08-20T20:13:17.924Z,96466.03
2022-08-20T20:15:46.418Z,96465.81
2022-08-20T20:18:16.117Z,96471.94
2022-08-20T20:20:57.081Z,96468.03
2022-08-20T20:23:38.793Z,96471.25
2022-08-20T20:26:19.986Z,96467.00
2022-08-20T20:28:50.506Z,96477.84
2022-08-20T20:31:21.725Z,96462.97
2022-08-20T20:33:56.220Z,96466.41
2022-08-20T20:36:36.589Z,96468.59
2022-08-20T20:39:11.215Z,96465.47
2022-08-20T20:41:52.335Z,96478.00
2022-08-20T20:44:22.398Z,96477.25
2022-08-20T20:46:54.294Z,96486.31
2022-08-20T20:49:26.658Z,96481.09
2022-08-20T20:51:58.900Z,96478.69
2022-08-20T20:54:31.557Z,96473.34
2022-08-20T20:57:03.182Z,96464.47
2022-08-20T20:59:33.515Z,96470.06
2022-08-20T21:02:02.091Z,96465.75
2022-08-20T21:04:31.800Z,96474.72
2022-08-20T21:07:25.009Z,96465.75
2022-08-20T21:09:57.314Z,96464.44
2022-08-20T21:12:26.259Z,96463.47
2022-08-20T21:14:55.892Z,96458.06
2022-08-20T21:17:24.334Z,96463.66
2022-08-20T21:19:54.035Z,96464.78
2022-08-20T21:22:22.400Z,96467.34
2022-08-20T21:24:51.472Z,96467.91
2022-08-20T21:27:22.018Z,96471.84
2022-08-20T21:29:50.104Z,96468.44
2022-08-20T21:32:18.594Z,96470.88
2022-08-20T21:34:47.096Z,96483.47
2022-08-20T21:37:17.842Z,96482.03
2022-08-20T21:39:46.340Z,96489.06
2022-08-20T21:42:28.217Z,96487.03
2022-08-20T21:44:57.991Z,96489.50
2022-08-20T21:47:26.601Z,96485.13
2022-08-20T21:49:55.260Z,96495.88
2022-08-20T21:52:24.914Z,96485.06
2022-08-20T21:54:53.616Z,96477.41
2022-08-20T21:57:23.681Z,96485.00
2022-08-20T21:59:52.072Z,96482.63
2022-08-20T22:02:21.734Z,96476.34
2022-08-20T22:04:53.880Z,96476.69
2022-08-20T22:07:24.384Z,96477.22
2022-08-20T22:09:52.675Z,96475.81
2022-08-20T22:12:23.860Z,96474.00
2022-08-20T22:14:53.010Z,96467.91
2022-08-20T22:17:21.641Z,96471.13
2022-08-20T22:19:50.013Z,96468.28
2022-08-20T22:22:19.748Z,96462.25
2022-08-20T22:24:49.463Z,96465.91
2022-08-20T22:27:17.849Z,96464.94
2022-08-20T22:29:46.246Z,96473.59
2022-08-20T22:32:50.532Z,96467.00
2022-08-20T22:35:18.245Z,96467.75
2022-08-20T22:37:46.988Z,96458.06
2022-08-20T22:40:16.819Z,96462.41
2022-08-20T22:42:45.162Z,96466.50
2022-08-20T22:45:14.954Z,96463.78
2022-08-20T22:47:43.711Z,96467.22
2022-08-20T22:50:13.167Z,96465.13
2022-08-20T22:52:47.461Z,96466.63
2022-08-20T22:55:17.183Z,96454.06
2022-08-20T22:57:48.472Z,96459.19
2022-08-20T23:00:18.483Z,96455.59
2022-08-20T23:02:51.274Z,96454.09
2022-08-20T23:05:21.902Z,96457.84
2022-08-20T23:07:54.014Z,96451.56
2022-08-20T23:10:24.368Z,96456.78
2022-08-20T23:12:53.015Z,96453.88
2022-08-20T23:15:21.620Z,96449.22
2022-08-20T23:17:50.038Z,96450.81
2022-08-20T23:20:19.157Z,96451.06
2022-08-20T23:22:47.645Z,96445.19
2022-08-20T23:25:19.112Z,96449.47
2022-08-20T23:27:51.014Z,96443.44
2022-08-20T23:30:20.697Z,96441.75
2022-08-20T23:32:49.286Z,96441.75
2022-08-20T23:35:17.995Z,96437.66
2022-08-20T23:37:48.988Z,96433.94
2022-08-20T23:40:20.028Z,96439.16
2022-08-20T23:42:58.796Z,96439.03
2022-08-20T23:45:28.582Z,96444.28
2022-08-20T23:47:56.932Z,96436.81
2022-08-20T23:50:27.984Z,96447.63
2022-08-20T23:52:57.416Z,96439.25
2022-08-20T23:55:26.051Z,96434.31
2022-08-20T23:57:54.852Z,96437.47
